Mount Sterling, IA (52573)

12:22 PM CST on December 08, 2016 (GMT -0600)
KIADONNE3 | | Change Station

Elev 700 ft 40.63 °N, 91.60 °W | Updated 8 seconds ago

Mostly Cloudy
Mostly Cloudy
21.2 °F
Feels Like 9 °F
N
11.9
Wind Variable Wind from West
Gusts 15.0 mph

Today
High -- | Low -- °F
--% Chance of Precip.
Yesterday
High -- | Low -- °F
Precip. -- in
Pressure 30.48 in
Visibility 10.0 miles
Clouds Few 2400 ft
Overcast 2900 ft
Windchill 9 °F
Dew Point -8 °F
Humidity 27%
Rainfall 0.00 in
Snow Depth Not available.
7:19 AM 4:40 PM
Waxing Gibbous, 65% visible
METAR KEOK 081815Z AUTO 30012G17KT 10SM FEW024 OVC029 M05/M12 A3048 RMK AO2
Pressure 30.48 in
Visibility 10.0 miles
Clouds Few 2400 ft
Overcast 2900 ft
Windchill 9 °F
Dew Point -8 °F
Humidity 27%
Rainfall 0.00 in
Snow Depth Not available.
7:19 AM 4:40 PM
Waxing Gibbous, 65% visible
METAR KEOK 081815Z AUTO 30012G17KT 10SM FEW024 OVC029 M05/M12 A3048 RMK AO2

10-Day Weather Forecast

Almanac

Astronomy

Dec. 08, 2016 Rise Set
Actual Time
Civil Twilight
Nautical Twilight
Astronomical Twilight
Moon
Length of Visible Light
Length of Day
Tomorrow will be .
, % of the Moon is Illuminated

Today's Extremes

State Highs State Lows

Community

WunderPhotos

Upload Photos

1,956,277 photos uploaded!

WunderBlog® & News

Nearby

Air Quality

  Air Quality AQ Index Pollutant
Not available.

Snow Depth

Station Depth Elevation

Earthquake Activity

City Distance Mag. Time & Date
Minimum magnitude displayed is 2.5.

Coastal Water Temperatures

Place Temperature

Stations

Nearby Weather Stations

Station Location Temp. Windchill Dew Point Humidity Wind Precip. Elev Updated Type
                   

Watches & Warnings

There are currently no watches in effect.